Porada — UZQC — position and weather

sailwx.info

Track history (hours):
 
Tides and Currents Weather Stations Pressure Air Temp Water Temp Dewpoint Dewpoint Depression Visibility Wind Speed Wind Dir Waves Ship Positions

Porada

Last reported at 2018-Jan-20 02:01 UTC. Time now 2018-Jan-20 07:20 UTC.
Position N 45°29' E 036°44'.

Length 114 m; draft 2.6 m.

Type: Cargo ship. MMSI: 272544000.

Date/timePositionNaut miles runAvg speedWind from/ knotsBaromVisibWave heightAir tempDewpointWater temp
2018-Jan-20 02:01N 45°29' E 036°44'2 7.9
2018-Jan-20 01:46N 45°27' E 036°43'2 7.9
2018-Jan-20 01:30N 45°25' E 036°42'4 7.9
2018-Jan-20 01:00N 45°22' E 036°40'4 7.1
2018-Jan-20 00:30N 45°20' E 036°36'4 8.4
2018-Jan-20 00:00N 45°18' E 036°30'3 6.0
2018-Jan-19 23:29N 45°16' E 036°29'  
2018-Jan-10 07:35N 45°15' E 036°28'0 6.8
2018-Jan-10 07:30N 45°16' E 036°28'3 6.2
2018-Jan-10 06:59N 45°19' E 036°30'3 7.4
2018-Jan-10 06:31N 45°20' E 036°35'4 7.1
2018-Jan-10 06:00N 45°22' E 036°39'3 6.4
2018-Jan-10 05:31N 45°25' E 036°41'2 3.5
2018-Jan-10 05:01N 45°26' E 036°42'  
Track history (hours):
 
Tides and Currents Weather Stations Pressure Air Temp Water Temp Dewpoint Dewpoint Depression Visibility Wind Speed Wind Dir Waves Ship Positions

Porada

Last reported at 2018-Jan-20 02:01 UTC. Time now 2018-Jan-20 07:20 UTC.
Position N 45°29' E 036°44'.

Length 114 m; draft 2.6 m.

Type: Cargo ship. MMSI: 272544000.

Date/timePositionNaut miles runAvg speedWind from/ knotsBaromVisibWave heightAir tempDewpointWater temp
2018-Jan-20 02:01N 45°29' E 036°44'2 7.9
2018-Jan-20 01:46N 45°27' E 036°43'2 7.9
2018-Jan-20 01:30N 45°25' E 036°42'4 7.9
2018-Jan-20 01:00N 45°22' E 036°40'4 7.1
2018-Jan-20 00:30N 45°20' E 036°36'4 8.4
2018-Jan-20 00:00N 45°18' E 036°30'3 6.0
2018-Jan-19 23:29N 45°16' E 036°29'  
2018-Jan-10 07:35N 45°15' E 036°28'0 6.8
2018-Jan-10 07:30N 45°16' E 036°28'3 6.2
2018-Jan-10 06:59N 45°19' E 036°30'3 7.4
2018-Jan-10 06:31N 45°20' E 036°35'4 7.1
2018-Jan-10 06:00N 45°22' E 036°39'3 6.4
2018-Jan-10 05:31N 45°25' E 036°41'2 3.5
2018-Jan-10 05:01N 45°26' E 036°42'  

Dump ship's entire track history